createdAt,value
2022-11-03T00:02:05.237Z,20.93
2022-11-03T00:04:33.126Z,25.63
2022-11-03T00:07:00.893Z,21.70
2022-11-03T00:09:28.699Z,25.03
2022-11-03T00:11:56.501Z,24.37
2022-11-03T00:14:24.332Z,21.73
2022-11-03T00:16:53.572Z,25.23
2022-11-03T00:19:21.945Z,23.50
2022-11-03T00:21:49.925Z,22.30
2022-11-03T00:24:17.747Z,19.67
2022-11-03T00:26:45.555Z,22.20
2022-11-03T00:29:15.691Z,21.63
2022-11-03T00:31:44.968Z,25.60
2022-11-03T00:34:14.128Z,20.97
2022-11-03T00:36:43.768Z,21.37
2022-11-03T00:39:12.541Z,19.77
2022-11-03T00:41:40.851Z,20.30
2022-11-03T00:44:10.503Z,18.00
2022-11-03T00:46:38.662Z,17.70
2022-11-03T00:49:07.203Z,20.73
2022-11-03T00:51:36.406Z,19.20
2022-11-03T00:54:06.030Z,26.60
2022-11-03T00:56:36.031Z,21.70
2022-11-03T00:59:04.997Z,20.77
2022-11-03T01:01:39.221Z,22.80
2022-11-03T01:04:28.762Z,20.60
2022-11-03T01:06:59.800Z,17.97
2022-11-03T01:09:29.577Z,19.03
2022-11-03T01:12:00.671Z,20.83
2022-11-03T01:14:31.860Z,23.70
2022-11-03T01:17:00.062Z,20.93
2022-11-03T01:19:28.077Z,19.60
2022-11-03T01:21:56.088Z,24.10
2022-11-03T01:24:25.322Z,22.27
2022-11-03T01:26:53.113Z,24.47
2022-11-03T01:29:20.967Z,22.13
2022-11-03T01:31:49.028Z,21.73
2022-11-03T01:34:18.298Z,17.97
2022-11-03T01:36:47.160Z,21.20
2022-11-03T01:39:16.611Z,20.83
2022-11-03T01:41:48.149Z,18.43
2022-11-03T01:44:31.031Z,18.77
2022-11-03T01:47:10.153Z,20.73
2022-11-03T01:49:45.631Z,16.73
2022-11-03T01:52:19.115Z,19.63
2022-11-03T01:54:51.146Z,18.03
2022-11-03T01:57:25.455Z,18.60
2022-11-03T01:59:55.832Z,15.73
2022-11-03T02:02:27.100Z,20.73
2022-11-03T02:04:56.546Z,16.80
2022-11-03T02:07:28.101Z,16.57
2022-11-03T02:09:55.993Z,16.47
2022-11-03T02:12:25.469Z,18.23
2022-11-03T02:14:59.551Z,15.27
2022-11-03T02:17:29.938Z,15.23
2022-11-03T02:20:01.082Z,15.03
2022-11-03T02:22:44.768Z,17.43
2022-11-03T02:25:18.834Z,18.53
2022-11-03T02:27:48.108Z,18.63
2022-11-03T02:30:16.087Z,14.60
2022-11-03T02:32:57.086Z,17.33
2022-11-03T02:35:32.819Z,18.27
2022-11-03T02:38:06.029Z,23.17
2022-11-03T02:40:37.401Z,19.93
2022-11-03T02:43:09.135Z,23.50
2022-11-03T02:45:38.703Z,20.87
2022-11-03T02:48:07.826Z,22.33
2022-11-03T02:50:35.891Z,26.70
2022-11-03T02:53:04.381Z,25.27
2022-11-03T02:55:38.234Z,30.43
2022-11-03T02:58:17.442Z,27.30
2022-11-03T03:00:50.594Z,30.00
2022-11-03T03:03:23.591Z,38.63
2022-11-03T03:05:57.566Z,32.17
2022-11-03T03:08:27.865Z,31.97
2022-11-03T03:10:56.503Z,22.43
2022-11-03T03:13:26.219Z,20.20
2022-11-03T03:16:07.797Z,18.10
2022-11-03T03:18:48.851Z,13.73
2022-11-03T03:21:22.602Z,15.50
2022-11-03T03:23:55.869Z,16.90
2022-11-03T03:26:29.244Z,19.73
2022-11-03T03:29:00.943Z,17.17
2022-11-03T03:31:32.281Z,19.70
2022-11-03T03:34:05.091Z,15.77
2022-11-03T03:36:41.286Z,23.60
2022-11-03T03:39:12.854Z,30.40
2022-11-03T03:41:41.814Z,19.77
2022-11-03T03:44:12.792Z,17.13
2022-11-03T03:46:45.765Z,18.57
2022-11-03T03:49:14.156Z,19.50
2022-11-03T03:51:42.952Z,15.77
2022-11-03T03:54:10.950Z,12.87
2022-11-03T03:56:43.412Z,22.07
2022-11-03T03:59:12.590Z,17.10
2022-11-03T04:01:40.529Z,14.07
2022-11-03T04:04:08.486Z,10.97
2022-11-03T04:06:36.299Z,13.77
2022-11-03T04:09:04.394Z,19.00
2022-11-03T04:11:49.822Z,15.17
2022-11-03T04:14:36.186Z,18.43
2022-11-03T04:17:21.471Z,12.33
2022-11-03T04:20:06.716Z,24.87
2022-11-03T04:22:35.076Z,19.87
2022-11-03T04:25:02.935Z,15.83
2022-11-03T04:27:33.274Z,16.40
2022-11-03T04:30:08.560Z,19.60
2022-11-03T04:32:37.268Z,15.70
2022-11-03T04:35:15.126Z,12.20
2022-11-03T04:37:47.476Z,13.20
2022-11-03T04:40:17.486Z,16.87
2022-11-03T04:42:45.846Z,12.33
2022-11-03T04:45:23.316Z,14.60
2022-11-03T04:47:52.891Z,14.60
2022-11-03T04:50:22.732Z,17.67
2022-11-03T04:52:56.016Z,15.80
2022-11-03T04:55:23.896Z,12.53
2022-11-03T04:57:57.904Z,15.17
2022-11-03T05:00:27.238Z,14.57
2022-11-03T05:02:56.463Z,14.50
2022-11-03T05:05:26.244Z,16.47
2022-11-03T05:07:56.456Z,19.50
2022-11-03T05:10:26.935Z,14.63
2022-11-03T05:12:55.969Z,15.43
2022-11-03T05:15:35.893Z,13.77
2022-11-03T05:18:16.402Z,12.40
2022-11-03T05:20:48.949Z,10.97
2022-11-03T05:23:17.294Z,12.47
2022-11-03T05:25:48.460Z,11.10
2022-11-03T05:28:25.271Z,11.30
2022-11-03T05:30:55.090Z,14.23
2022-11-03T05:33:29.386Z,9.40
2022-11-03T05:36:00.572Z,9.70
2022-11-03T05:38:32.078Z,9.13
2022-11-03T05:41:00.342Z,11.70
2022-11-03T05:43:29.628Z,10.87
2022-11-03T05:46:02.619Z,12.93
2022-11-03T05:48:34.198Z,10.00
2022-11-03T05:51:11.679Z,9.00
2022-11-03T05:53:43.251Z,9.37
2022-11-03T05:56:17.391Z,8.53
2022-11-03T05:58:45.978Z,9.57
2022-11-03T06:01:20.833Z,11.97
2022-11-03T06:03:49.177Z,9.03
2022-11-03T06:06:21.949Z,9.83
2022-11-03T06:08:50.351Z,14.90
2022-11-03T06:11:25.627Z,8.17
2022-11-03T06:13:53.510Z,10.10
2022-11-03T06:16:42.374Z,8.43
2022-11-03T06:19:21.642Z,9.13
2022-11-03T06:21:51.173Z,12.00
2022-11-03T06:24:22.023Z,10.03
2022-11-03T06:26:52.277Z,10.00
2022-11-03T06:29:22.049Z,9.07
2022-11-03T06:31:53.995Z,9.73
2022-11-03T06:34:37.895Z,12.37
2022-11-03T06:37:20.815Z,9.30
2022-11-03T06:39:50.374Z,10.43
2022-11-03T06:42:21.559Z,8.50
2022-11-03T06:44:51.464Z,8.63
2022-11-03T06:47:24.634Z,7.87
2022-11-03T06:49:54.928Z,9.37
2022-11-03T06:52:28.519Z,11.33
2022-11-03T06:55:02.584Z,13.30
2022-11-03T06:57:35.751Z,10.13
2022-11-03T07:00:28.544Z,10.47
2022-11-03T07:03:07.350Z,8.67
2022-11-03T07:05:36.659Z,9.53
2022-11-03T07:08:14.228Z,7.53
2022-11-03T07:10:42.209Z,9.70
2022-11-03T07:13:15.445Z,8.17
2022-11-03T07:15:46.484Z,10.87
2022-11-03T07:18:22.200Z,13.63
2022-11-03T07:20:50.201Z,10.97
2022-11-03T07:23:22.921Z,8.80
2022-11-03T07:25:54.756Z,10.67
2022-11-03T07:28:30.289Z,7.67
2022-11-03T07:31:00.251Z,9.40
2022-11-03T07:33:32.303Z,8.20
2022-11-03T07:36:17.259Z,12.27
2022-11-03T07:38:48.662Z,9.73
2022-11-03T07:41:20.287Z,9.70
2022-11-03T07:43:54.293Z,8.80
2022-11-03T07:46:24.220Z,9.83
2022-11-03T07:48:57.605Z,9.07
2022-11-03T07:51:29.693Z,7.67
2022-11-03T07:54:03.214Z,7.60
2022-11-03T07:56:36.527Z,10.30
2022-11-03T07:59:14.620Z,9.23
2022-11-03T08:01:44.832Z,10.40
2022-11-03T08:04:19.941Z,9.50
2022-11-03T08:06:49.188Z,7.90
2022-11-03T08:09:17.231Z,11.67
2022-11-03T08:11:45.495Z,9.97
2022-11-03T08:14:13.427Z,11.80
2022-11-03T08:16:41.720Z,8.13
2022-11-03T08:19:09.715Z,6.20
2022-11-03T08:21:38.887Z,8.10
2022-11-03T08:24:07.127Z,10.23
2022-11-03T08:26:34.964Z,11.50
2022-11-03T08:29:02.820Z,8.10
2022-11-03T08:31:30.609Z,11.40
2022-11-03T08:33:58.407Z,12.47
2022-11-03T08:36:26.194Z,8.80
2022-11-03T08:38:55.337Z,9.57
2022-11-03T08:41:23.171Z,11.40
2022-11-03T08:43:50.988Z,7.47
2022-11-03T08:46:18.795Z,10.10
2022-11-03T08:48:47.015Z,10.80
2022-11-03T08:51:15.867Z,10.70
2022-11-03T08:53:44.295Z,10.07
2022-11-03T08:56:16.961Z,12.40
2022-11-03T08:58:47.353Z,8.17
2022-11-03T09:01:15.608Z,8.10
2022-11-03T09:03:46.758Z,9.80
2022-11-03T09:06:14.727Z,10.70
2022-11-03T09:11:31.921Z,11.60
2022-11-03T09:13:59.732Z,8.83
2022-11-03T09:16:27.496Z,11.07
2022-11-03T09:18:55.365Z,12.37
2022-11-03T09:21:28.291Z,8.77
2022-11-03T09:23:56.196Z,13.17
2022-11-03T09:26:24.136Z,8.50
2022-11-03T09:28:53.591Z,9.03
2022-11-03T09:31:21.439Z,13.00
2022-11-03T09:33:49.347Z,11.30
2022-11-03T09:36:17.297Z,8.90
2022-11-03T09:38:45.221Z,11.07
2022-11-03T09:41:26.429Z,10.90
2022-11-03T09:44:00.410Z,7.50
2022-11-03T09:46:30.272Z,9.30
2022-11-03T09:48:59.357Z,7.90
2022-11-03T09:51:28.675Z,7.80
2022-11-03T09:53:59.462Z,8.07
2022-11-03T09:56:27.886Z,7.03
2022-11-03T09:58:55.770Z,7.40
2022-11-03T10:01:25.301Z,8.50
2022-11-03T10:03:53.811Z,9.80
2022-11-03T10:06:21.817Z,11.97
2022-11-03T10:08:50.316Z,12.30
2022-11-03T10:11:18.743Z,12.03
2022-11-03T10:13:52.867Z,11.30
2022-11-03T10:16:24.160Z,7.87
2022-11-03T10:18:53.725Z,11.90
2022-11-03T10:21:24.890Z,9.57
2022-11-03T10:23:52.715Z,7.87
2022-11-03T10:26:21.196Z,7.17
2022-11-03T10:29:00.446Z,12.23
2022-11-03T10:31:35.895Z,9.43
2022-11-03T10:34:06.046Z,8.53
2022-11-03T10:36:35.247Z,7.67
2022-11-03T10:39:25.323Z,10.77
2022-11-03T10:41:58.018Z,10.10
2022-11-03T10:44:28.574Z,10.13
2022-11-03T10:46:58.341Z,8.37
2022-11-03T10:49:29.398Z,11.70
2022-11-03T10:52:06.775Z,12.30
2022-11-03T10:54:37.844Z,7.77
2022-11-03T10:57:05.991Z,11.37
2022-11-03T10:59:37.419Z,10.47
2022-11-03T11:02:16.788Z,15.80
2022-11-03T11:04:47.682Z,21.77
2022-11-03T11:07:23.257Z,13.93
2022-11-03T11:09:51.329Z,18.87
2022-11-03T11:12:23.044Z,8.73
2022-11-03T11:14:56.730Z,10.17
2022-11-03T11:17:44.378Z,8.00
2022-11-03T11:20:34.088Z,6.13
2022-11-03T11:23:52.632Z,9.70
2022-11-03T11:26:41.578Z,10.50
2022-11-03T11:29:36.032Z,20.43
2022-11-03T11:32:50.576Z,12.23
2022-11-03T11:35:34.379Z,9.10
2022-11-03T11:38:31.942Z,11.63
2022-11-03T11:41:01.118Z,8.90
2022-11-03T11:43:29.373Z,9.40
2022-11-03T11:46:36.612Z,12.10
2022-11-03T11:49:18.124Z,10.90
2022-11-03T11:51:46.385Z,9.70
2022-11-03T11:54:18.861Z,9.63
2022-11-03T11:56:50.886Z,8.17
2022-11-03T11:59:25.173Z,10.20
2022-11-03T12:01:56.417Z,10.80
2022-11-03T12:04:27.616Z,10.00
2022-11-03T12:06:55.809Z,8.70
2022-11-03T12:09:27.067Z,6.37
2022-11-03T12:12:00.561Z,5.77
2022-11-03T12:14:36.998Z,7.97
2022-11-03T12:17:33.910Z,8.80
2022-11-03T12:20:01.831Z,6.90
2022-11-03T12:22:43.016Z,8.70
2022-11-03T12:25:34.332Z,9.47
2022-11-03T12:28:04.267Z,8.30
2022-11-03T12:30:35.597Z,8.20
2022-11-03T12:33:07.506Z,8.93
2022-11-03T12:35:35.498Z,8.00
2022-11-03T12:38:03.276Z,9.73
2022-11-03T12:40:31.091Z,5.97
2022-11-03T12:42:58.875Z,8.03
2022-11-03T12:45:28.058Z,7.00
2022-11-03T12:47:55.838Z,6.17
2022-11-03T12:50:23.623Z,8.83
2022-11-03T12:52:51.414Z,10.77
2022-11-03T12:55:19.260Z,12.57
2022-11-03T12:57:47.120Z,8.53
2022-11-03T13:00:16.088Z,9.40
2022-11-03T13:02:45.432Z,9.37
2022-11-03T13:05:15.326Z,8.00
2022-11-03T13:07:43.419Z,11.47
2022-11-03T13:10:11.403Z,10.97
2022-11-03T13:12:41.405Z,9.83
2022-11-03T13:15:13.327Z,10.70
2022-11-03T13:18:07.243Z,11.23
2022-11-03T13:20:31.908Z,10.30
2022-11-03T13:22:59.731Z,9.30
2022-11-03T13:25:28.800Z,10.13
2022-11-03T13:27:57.140Z,9.47
2022-11-03T13:30:26.266Z,9.77
2022-11-03T13:32:54.598Z,9.93
2022-11-03T13:35:22.595Z,8.50
2022-11-03T13:37:51.810Z,10.27
2022-11-03T13:43:11.683Z,10.03
2022-11-03T13:45:39.859Z,14.10
2022-11-03T13:49:07.444Z,11.40
2022-11-03T13:50:56.667Z,10.70
2022-11-03T13:56:19.506Z,9.53
2022-11-03T14:01:37.858Z,10.70
2022-11-03T14:06:54.110Z,10.50
2022-11-03T14:09:23.381Z,10.67
2022-11-03T14:12:08.623Z,12.23
2022-11-03T14:14:36.431Z,14.73
2022-11-03T14:17:04.278Z,14.37
2022-11-03T14:19:38.150Z,15.43
2022-11-03T14:22:09.536Z,15.67
2022-11-03T14:24:38.701Z,12.97
2022-11-03T14:27:06.597Z,16.83
2022-11-03T14:29:34.432Z,12.90
2022-11-03T14:32:02.349Z,13.13
2022-11-03T14:34:30.241Z,14.00
2022-11-03T14:36:58.458Z,12.50
2022-11-03T14:39:26.301Z,15.50
2022-11-03T14:42:03.343Z,11.10
2022-11-03T14:44:31.594Z,13.40
2022-11-03T14:47:01.275Z,16.67
2022-11-03T14:49:29.154Z,15.70
2022-11-03T14:51:57.819Z,16.73
2022-11-03T14:54:25.647Z,17.83
2022-11-03T14:56:55.263Z,13.23
2022-11-03T14:59:23.299Z,13.57
2022-11-03T15:01:51.770Z,18.70
2022-11-03T15:04:19.710Z,14.80
2022-11-03T15:06:47.567Z,14.73
2022-11-03T15:09:15.603Z,19.00
2022-11-03T15:11:43.885Z,15.60
2022-11-03T15:14:13.617Z,11.90
2022-11-03T15:16:41.916Z,12.70
2022-11-03T15:19:09.781Z,13.20
2022-11-03T15:21:37.589Z,17.00
2022-11-03T15:26:53.515Z,13.53
2022-11-03T15:29:23.849Z,13.00
2022-11-03T15:31:51.763Z,14.37
2022-11-03T15:34:19.679Z,14.03
2022-11-03T15:36:47.537Z,20.30
2022-11-03T15:39:15.994Z,20.53
2022-11-03T15:41:43.776Z,16.90
2022-11-03T15:44:11.552Z,17.83
2022-11-03T15:46:40.711Z,18.70
2022-11-03T15:49:08.512Z,12.07
2022-11-03T15:51:36.313Z,16.80
2022-11-03T15:54:04.380Z,17.47
2022-11-03T15:56:32.223Z,18.30
2022-11-03T15:59:00.020Z,12.90
2022-11-03T16:01:27.889Z,16.97
2022-11-03T16:03:57.136Z,15.67
2022-11-03T16:06:46.581Z,15.70
2022-11-03T16:09:12.737Z,19.57
2022-11-03T16:11:40.559Z,19.97
2022-11-03T16:14:08.354Z,16.10
2022-11-03T16:16:36.152Z,20.70
2022-11-03T16:19:05.319Z,17.27
2022-11-03T16:21:33.453Z,17.57
2022-11-03T16:24:01.302Z,16.50
2022-11-03T16:26:29.085Z,14.60
2022-11-03T16:28:56.864Z,17.30
2022-11-03T16:31:24.650Z,14.70
2022-11-03T16:33:52.664Z,22.90
2022-11-03T16:36:21.816Z,15.57
2022-11-03T16:38:49.622Z,15.47
2022-11-03T16:41:17.425Z,16.60
2022-11-03T16:43:46.989Z,16.70
2022-11-03T16:46:14.785Z,30.40
2022-11-03T16:48:42.639Z,24.87
2022-11-03T16:51:13.758Z,27.13
2022-11-03T16:53:42.974Z,25.23
2022-11-03T16:56:10.794Z,23.73
2022-11-03T16:58:38.614Z,44.03
2022-11-03T17:01:06.880Z,44.93
2022-11-03T17:03:34.715Z,25.80
2022-11-03T17:06:02.555Z,23.30
2022-11-03T17:11:35.676Z,17.97
2022-11-03T17:14:05.194Z,21.60
2022-11-03T17:16:33.018Z,19.93
2022-11-03T17:19:00.881Z,20.50
2022-11-03T17:21:28.745Z,22.23
2022-11-03T17:23:58.854Z,21.00
2022-11-03T17:26:37.736Z,24.40
2022-11-03T17:29:16.308Z,28.30
2022-11-03T17:31:45.250Z,25.63
2022-11-03T17:34:13.125Z,27.37
2022-11-03T17:36:41.493Z,25.80
2022-11-03T17:39:13.148Z,26.80
2022-11-03T17:41:42.445Z,23.60
2022-11-03T17:44:12.067Z,23.33
2022-11-03T17:46:39.924Z,23.90
2022-11-03T17:49:07.741Z,27.30
2022-11-03T17:51:35.959Z,22.13
2022-11-03T17:54:08.083Z,25.13
2022-11-03T17:56:36.319Z,25.40
2022-11-03T17:59:05.624Z,23.00
2022-11-03T18:01:33.567Z,23.57
2022-11-03T18:04:02.757Z,26.87
2022-11-03T18:06:30.808Z,23.73
2022-11-03T18:08:59.333Z,21.47
2022-11-03T18:11:48.464Z,22.00
2022-11-03T18:14:18.264Z,29.97
2022-11-03T18:16:46.486Z,29.43
2022-11-03T18:19:15.627Z,23.47
2022-11-03T18:21:43.843Z,23.00
2022-11-03T18:24:16.486Z,21.80
2022-11-03T18:26:44.818Z,22.60
2022-11-03T18:29:12.589Z,22.80
2022-11-03T18:31:43.941Z,22.73
2022-11-03T18:34:15.710Z,20.73
2022-11-03T18:36:44.338Z,22.77
2022-11-03T18:39:18.089Z,24.37
2022-11-03T18:41:45.924Z,22.00
2022-11-03T18:44:18.696Z,32.00
2022-11-03T18:46:48.816Z,29.80
2022-11-03T18:49:16.882Z,28.47
2022-11-03T18:51:49.513Z,21.47
2022-11-03T18:56:54.238Z,24.50
2022-11-03T18:59:25.026Z,22.53
2022-11-03T19:01:54.741Z,25.97
2022-11-03T19:04:22.699Z,28.57
2022-11-03T19:06:52.777Z,28.47
2022-11-03T19:09:24.473Z,26.67
2022-11-03T19:11:56.024Z,26.10
2022-11-03T19:14:26.707Z,29.97
2022-11-03T19:19:44.984Z,28.97
2022-11-03T19:22:14.671Z,34.67
2022-11-03T19:24:42.794Z,29.90
2022-11-03T19:27:17.154Z,30.60
2022-11-03T19:29:46.851Z,30.83
2022-11-03T19:32:20.559Z,29.40
2022-11-03T19:34:52.566Z,23.27
2022-11-03T19:37:20.392Z,24.13
2022-11-03T19:39:48.443Z,24.80
2022-11-03T19:42:28.891Z,25.67
2022-11-03T19:44:58.122Z,27.40
2022-11-03T19:47:32.525Z,29.47
2022-11-03T19:50:02.332Z,24.53
2022-11-03T19:52:32.598Z,28.33
2022-11-03T19:55:05.437Z,24.80
2022-11-03T19:57:33.542Z,24.77
2022-11-03T20:00:01.377Z,25.30
2022-11-03T20:02:30.673Z,28.57
2022-11-03T20:04:58.554Z,30.80
2022-11-03T20:07:31.653Z,24.20
2022-11-03T20:10:02.078Z,24.50
2022-11-03T20:12:30.842Z,23.03
2022-11-03T20:14:58.683Z,23.80
2022-11-03T20:17:27.212Z,20.13
2022-11-03T20:19:56.456Z,24.73
2022-11-03T20:22:29.035Z,26.53
2022-11-03T20:25:00.612Z,23.07
2022-11-03T20:27:28.515Z,24.13
2022-11-03T20:29:56.361Z,23.53
2022-11-03T20:32:24.238Z,26.17
2022-11-03T20:34:52.043Z,19.13
2022-11-03T20:37:21.674Z,20.37
2022-11-03T20:39:49.899Z,21.20
2022-11-03T20:42:20.467Z,21.30
2022-11-03T20:44:48.418Z,23.33
2022-11-03T20:47:17.346Z,18.73
2022-11-03T20:49:45.464Z,22.83
2022-11-03T20:52:14.671Z,22.97
2022-11-03T20:54:44.222Z,18.47
2022-11-03T20:57:12.951Z,20.47
2022-11-03T20:59:41.311Z,20.77
2022-11-03T21:02:11.783Z,24.33
2022-11-03T21:04:40.410Z,22.70
2022-11-03T21:07:10.776Z,21.10
2022-11-03T21:09:38.601Z,23.20
2022-11-03T21:12:12.471Z,19.80
2022-11-03T21:15:01.954Z,19.57
2022-11-03T21:17:43.748Z,20.57
2022-11-03T21:20:12.716Z,18.23
2022-11-03T21:22:57.425Z,23.07
2022-11-03T21:25:25.512Z,19.40
2022-11-03T21:27:55.305Z,22.53
2022-11-03T21:30:24.103Z,21.40
2022-11-03T21:32:52.268Z,21.27
2022-11-03T21:35:21.895Z,20.27
2022-11-03T21:37:49.917Z,20.70
2022-11-03T21:40:18.512Z,16.77
2022-11-03T21:43:03.907Z,16.80
2022-11-03T21:45:33.584Z,31.00
2022-11-03T21:48:19.648Z,23.80
2022-11-03T21:50:47.944Z,18.93
2022-11-03T21:53:15.730Z,17.77
2022-11-03T21:55:43.535Z,25.33
2022-11-03T21:58:11.323Z,20.80
2022-11-03T22:00:40.506Z,20.30
2022-11-03T22:03:08.728Z,22.77
2022-11-03T22:05:36.735Z,16.37
2022-11-03T22:08:07.850Z,19.10
2022-11-03T22:10:38.617Z,22.63
2022-11-03T22:13:06.834Z,19.60
2022-11-03T22:15:52.594Z,22.43
2022-11-03T22:18:21.712Z,20.80
2022-11-03T22:21:07.387Z,25.53
2022-11-03T22:23:52.619Z,23.67
2022-11-03T22:26:37.959Z,24.33
2022-11-03T22:29:19.748Z,23.77
2022-11-03T22:31:47.629Z,20.63
2022-11-03T22:34:34.239Z,21.13
2022-11-03T22:37:02.046Z,27.40
2022-11-03T22:39:47.579Z,21.43
2022-11-03T22:42:32.894Z,22.17
2022-11-03T22:45:18.220Z,21.83
2022-11-03T22:47:46.071Z,22.30
2022-11-03T22:50:15.222Z,24.73
2022-11-03T22:52:42.995Z,24.53
2022-11-03T22:55:09.805Z,24.20
2022-11-03T22:57:37.581Z,20.83
2022-11-03T23:00:06.645Z,19.70
2022-11-03T23:02:34.503Z,21.70
2022-11-03T23:05:02.366Z,18.50
2022-11-03T23:07:34.744Z,22.03
2022-11-03T23:10:05.237Z,21.13
2022-11-03T23:12:33.163Z,17.90
2022-11-03T23:15:30.041Z,21.57
2022-11-03T23:18:15.239Z,21.00
2022-11-03T23:21:00.880Z,24.60
2022-11-03T23:23:48.109Z,26.53
2022-11-03T23:26:16.382Z,20.83
2022-11-03T23:28:44.900Z,21.60
2022-11-03T23:31:13.332Z,23.33
2022-11-03T23:33:41.644Z,17.87
2022-11-03T23:36:11.229Z,17.53
2022-11-03T23:38:41.372Z,24.73
2022-11-03T23:41:11.651Z,21.37
2022-11-03T23:43:39.854Z,29.40
2022-11-03T23:46:25.462Z,23.70
2022-11-03T23:48:53.862Z,21.97
2022-11-03T23:51:23.851Z,20.00
2022-11-03T23:53:54.267Z,20.93
2022-11-03T23:56:40.955Z,22.13
2022-11-03T23:59:09.855Z,22.67
